Time;durP1;ratioP1;P1;durP2;ratioP2;P2;SDS_P1;SDS_P2;PMS_P1;PMS_P2;Temp;Humidity;BMP_temperature;BMP_pressure;BME280_temperature;BME280_humidity;BME280_pressure;Samples;Min_cycle;Max_cycle;Signal;HPM_P1;HPM_P2
2022/04/19 00:00:28;;;;;;;3.05;1.70;;;5.80;95.00;;;;;;5112970;28;20027;-83
2022/04/19 00:02:54;;;;;;;6.07;2.60;;;5.80;95.00;;;;;;5112582;28;20034;-82
2022/04/19 00:05:19;;;;;;;5.95;2.40;;;5.90;94.90;;;;;;5112993;28;20118;-82
2022/04/19 00:07:45;;;;;;;6.97;2.40;;;5.80;94.90;;;;;;5114216;28;20073;-82
2022/04/19 00:10:11;;;;;;;7.65;3.33;;;5.80;95.30;;;;;;5113073;28;20040;-83
2022/04/19 00:12:37;;;;;;;6.70;2.95;;;5.80;95.40;;;;;;5113509;28;20066;-83
2022/04/19 00:15:04;;;;;;;6.53;2.83;;;5.70;95.70;;;;;;5114472;28;20023;-82
2022/04/19 00:17:30;;;;;;;7.20;2.90;;;5.70;96.10;;;;;;5113155;28;20479;-83
2022/04/19 00:19:56;;;;;;;3.65;1.95;;;5.70;96.60;;;;;;5114363;28;20044;-83
2022/04/19 00:22:21;;;;;;;6.15;2.63;;;5.70;97.30;;;;;;5113149;28;20038;-83
2022/04/19 00:24:47;;;;;;;4.22;2.08;;;5.70;96.80;;;;;;5112961;28;20515;-83
2022/04/19 00:27:13;;;;;;;3.55;1.95;;;5.70;97.00;;;;;;5112766;28;20126;-83
2022/04/19 00:29:41;;;;;;;3.22;1.65;;;5.70;96.40;;;;;;5112688;28;20015;-82
2022/04/19 00:32:08;;;;;;;7.68;2.08;;;5.60;97.20;;;;;;5113028;28;20435;-84
2022/04/19 00:34:34;;;;;;;3.88;1.70;;;5.60;97.40;;;;;;5114028;28;20438;-85
2022/04/19 00:37:01;;;;;;;4.55;2.50;;;5.70;97.70;;;;;;5113876;28;20027;-84
2022/04/19 00:39:27;;;;;;;7.40;2.50;;;5.70;97.10;;;;;;5113572;28;20420;-83
2022/04/19 00:41:52;;;;;;;4.55;1.85;;;5.70;97.30;;;;;;5115505;28;20024;-86
2022/04/19 00:44:18;;;;;;;5.38;1.70;;;5.60;97.40;;;;;;5114806;28;20028;-86
2022/04/19 00:46:44;;;;;;;4.22;1.65;;;5.60;97.40;;;;;;5113924;28;20114;-85
2022/04/19 00:49:10;;;;;;;4.28;1.90;;;5.60;97.70;;;;;;5114153;28;20515;-86
2022/04/19 00:51:35;;;;;;;;;;;5.50;98.30;;;;;;5114666;28;20044;-86
2022/04/19 00:54:03;;;;;;;8.82;3.67;;;5.60;98.80;;;;;;5113873;28;20302;-87
2022/04/19 00:56:29;;;;;;;13.18;4.28;;;5.50;99.00;;;;;;5110894;28;20031;-85
2022/04/19 00:58:55;;;;;;;7.55;3.25;;;5.60;99.20;;;;;;5112668;28;20019;-84
2022/04/19 01:01:20;;;;;;;;;;;5.60;99.10;;;;;;5113897;28;20027;-84
2022/04/19 01:03:46;;;;;;;6.07;2.25;;;5.50;98.60;;;;;;5114122;28;19910;-84
2022/04/19 01:06:12;;;;;;;4.93;2.42;;;5.50;97.70;;;;;;5114831;28;20028;-84
2022/04/19 01:08:38;;;;;;;3.13;1.50;;;5.50;97.70;;;;;;5113023;28;20039;-83
2022/04/19 01:13:48;;;;;;;3.45;1.65;;;5.40;98.80;;;;;;5114602;28;19915;-84
2022/04/19 01:16:14;;;;;;;;;;;5.40;99.20;;;;;;5113782;28;20023;-83
2022/04/19 01:18:41;;;;;;;4.88;1.95;;;5.30;99.20;;;;;;5114675;28;19929;-84
2022/04/19 01:21:06;;;;;;;4.63;2.13;;;5.30;99.20;;;;;;5112028;28;20042;-84
2022/04/19 01:23:32;;;;;;;4.13;2.00;;;5.40;99.10;;;;;;5113381;28;20392;-83
2022/04/19 01:25:58;;;;;;;;;;;5.40;98.50;;;;;;5114911;28;20519;-85
2022/04/19 01:28:24;;;;;;;4.88;1.63;;;5.40;97.30;;;;;;5113611;28;20387;-85
2022/04/19 01:30:54;;;;;;;;;;;5.30;97.40;;;;;;5115020;28;20558;-84
2022/04/19 01:33:20;;;;;;;3.38;1.40;;;5.30;97.60;;;;;;5114145;28;19903;-81
2022/04/19 01:35:46;;;;;;;5.65;1.70;;;5.30;98.10;;;;;;5112189;28;20023;-81
2022/04/19 01:38:12;;;;;;;4.90;1.73;;;5.30;98.40;;;;;;5110951;28;20024;-83
2022/04/19 01:40:37;;;;;;;4.55;1.63;;;5.30;98.70;;;;;;5112598;28;20032;-83
2022/04/19 01:43:04;;;;;;;;;;;5.20;99.00;;;;;;5112704;28;20030;-83
2022/04/19 01:45:34;;;;;;;2.90;1.15;;;5.20;99.30;;;;;;5112070;28;19903;-81
2022/04/19 01:48:01;;;;;;;3.35;1.50;;;5.20;99.30;;;;;;5110899;28;20161;-82
2022/04/19 01:50:29;;;;;;;5.63;2.30;;;5.20;99.60;;;;;;5110780;28;20116;-81
2022/04/19 01:52:56;;;;;;;6.72;3.38;;;5.30;99.90;;;;;;5110930;28;20126;-82
2022/04/19 01:55:23;;;;;;;6.03;2.63;;;5.30;99.90;;;;;;5110817;28;20074;-82
2022/04/19 01:57:54;;;;;;;8.55;4.10;;;5.30;99.90;;;;;;5110616;28;20023;-83
2022/04/19 02:00:20;;;;;;;8.15;3.35;;;5.40;99.90;;;;;;5110958;28;20483;-81
2022/04/19 02:02:46;;;;;;;;;;;5.40;99.90;;;;;;5110712;28;20020;-82
2022/04/19 02:05:13;;;;;;;6.93;3.28;;;5.40;99.90;;;;;;5110582;28;20006;-82
2022/04/19 02:07:41;;;;;;;6.63;3.13;;;5.40;99.90;;;;;;5110332;28;20399;-82
2022/04/19 02:10:09;;;;;;;4.15;2.30;;;5.50;99.90;;;;;;5109810;28;20028;-82
2022/04/19 02:12:35;;;;;;;7.90;2.20;;;5.50;99.90;;;;;;5110277;28;20531;-82
2022/04/19 02:15:01;;;;;;;3.30;2.13;;;5.50;99.90;;;;;;5110771;28;20031;-83
2022/04/19 02:17:26;;;;;;;5.63;1.98;;;5.40;99.90;;;;;;5111576;28;20027;-82
2022/04/19 02:20:04;;;;;;;10.23;4.30;;;5.30;99.90;;;;;;5110846;28;20035;-83
2022/04/19 02:22:31;;;;;;;10.60;4.32;;;5.40;99.90;;;;;;5110558;28;20114;-83
2022/04/19 02:24:58;;;;;;;13.45;5.05;;;5.40;99.90;;;;;;5109870;28;20024;-83
2022/04/19 02:27:28;;;;;;;9.38;4.63;;;5.40;99.90;;;;;;5110187;28;20458;-83
2022/04/19 02:29:57;;;;;;;6.13;2.72;;;5.40;99.90;;;;;;5112753;28;20011;-84
2022/04/19 02:32:26;;;;;;;4.32;1.70;;;5.40;99.90;;;;;;5113100;28;20492;-86
2022/04/19 02:34:53;;;;;;;5.05;2.42;;;5.30;99.90;;;;;;5112087;28;20023;-84
2022/04/19 02:37:19;;;;;;;7.45;2.15;;;5.40;99.90;;;;;;5112333;28;20081;-84
2022/04/19 02:39:48;;;;;;;;;;;5.30;99.90;;;;;;5113801;28;20111;-85
2022/04/19 02:42:14;;;;;;;2.67;1.58;;;5.30;99.90;;;;;;5112099;28;19957;-84
2022/04/19 02:44:40;;;;;;;3.88;1.80;;;5.20;99.90;;;;;;5109993;28;20031;-80
2022/04/19 02:47:06;;;;;;;5.32;1.73;;;5.20;99.90;;;;;;5109455;28;20069;-82
2022/04/19 02:49:34;;;;;;;4.05;2.00;;;5.40;99.90;;;;;;5108031;28;20104;-81
2022/04/19 02:52:00;;;;;;;4.63;1.77;;;5.30;99.90;;;;;;5108397;28;20091;-81
2022/04/19 02:54:26;;;;;;;8.82;2.08;;;5.40;99.90;;;;;;5110290;28;20023;-81
2022/04/19 02:56:52;;;;;;;2.95;1.73;;;5.40;99.90;;;;;;5111498;28;20051;-83
2022/04/19 02:59:18;;;;;;;4.95;2.28;;;5.50;99.90;;;;;;5109966;28;20066;-83
2022/04/19 03:01:44;;;;;;;5.97;2.40;;;5.50;99.90;;;;;;5111031;28;20042;-83
2022/04/19 03:04:09;;;;;;;5.75;2.30;;;5.50;99.90;;;;;;5109576;28;20024;-82
2022/04/19 03:06:35;;;;;;;;;;;5.50;99.90;;;;;;5111464;28;20027;-82
2022/04/19 03:09:01;;;;;;;3.53;1.70;;;5.40;99.90;;;;;;5109092;28;19903;-82
2022/04/19 03:11:27;;;;;;;;;;;5.30;99.90;;;;;;5111282;28;20454;-82
2022/04/19 03:13:54;;;;;;;3.72;1.95;;;5.30;99.90;;;;;;5110277;28;19918;-84
2022/04/19 03:16:20;;;;;;;5.80;2.22;;;5.30;99.90;;;;;;5111479;28;20470;-83
2022/04/19 03:18:46;;;;;;;5.40;2.22;;;5.40;99.90;;;;;;5112924;28;20103;-84
2022/04/19 03:21:12;;;;;;;4.18;1.85;;;5.30;99.90;;;;;;5114986;28;20039;-83
2022/04/19 03:29:08;;;;;;;7.90;2.30;;;5.10;99.90;;;;;;5114507;28;20084;-85
2022/04/19 03:31:34;;;;;;;3.97;1.77;;;5.10;99.90;;;;;;5113789;28;20046;-85
2022/04/19 03:34:04;;;;;;;3.60;2.20;;;5.00;99.90;;;;;;5113991;28;20027;-79
2022/04/19 03:36:30;;;;;;;4.07;2.35;;;4.90;99.90;;;;;;5112798;28;20034;-82
2022/04/19 03:38:56;;;;;;;4.05;2.15;;;4.80;99.90;;;;;;5113020;28;20126;-83
2022/04/19 03:41:22;;;;;;;3.38;2.08;;;4.70;99.90;;;;;;5113186;28;20162;-82
2022/04/19 03:43:48;;;;;;;;;;;4.70;99.90;;;;;;5113637;28;20519;-82
2022/04/19 03:46:13;;;;;;;4.13;2.03;;;4.70;99.90;;;;;;5114518;28;19930;-83
2022/04/19 03:48:39;;;;;;;;;;;4.70;99.90;;;;;;5115077;28;20433;-88
2022/04/19 03:51:04;;;;;;;4.65;2.30;;;4.70;99.90;;;;;;5115813;28;19923;-88
2022/04/19 03:53:31;;;;;;;4.03;1.95;;;4.70;99.90;;;;;;5115061;28;20035;-83
2022/04/19 03:55:58;;;;;;;5.97;2.10;;;4.80;99.90;;;;;;5115147;27;20047;-83
2022/04/19 03:58:25;;;;;;;4.00;1.83;;;4.80;99.90;;;;;;5111716;28;20024;-81
2022/04/19 04:00:51;;;;;;;5.28;2.30;;;4.80;99.90;;;;;;5111629;28;20020;-82
2022/04/19 04:03:17;;;;;;;3.72;2.15;;;4.90;99.90;;;;;;5112484;28;20035;-82
2022/04/19 04:05:42;;;;;;;;;;;4.80;99.90;;;;;;5112824;28;20031;-84
2022/04/19 04:08:08;;;;;;;6.05;2.40;;;4.80;99.90;;;;;;5112348;28;19903;-81
2022/04/19 04:10:34;;;;;;;;;;;4.80;99.90;;;;;;5114137;28;20118;-82
2022/04/19 04:13:00;;;;;;;4.82;3.10;;;4.90;99.90;;;;;;5112999;28;19995;-83
2022/04/19 04:15:26;;;;;;;6.90;2.72;;;4.90;99.90;;;;;;5112266;28;20031;-81
2022/04/19 04:17:52;;;;;;;7.53;2.15;;;4.90;99.90;;;;;;5113008;28;20031;-80
2022/04/19 04:20:17;;;;;;;8.00;2.80;;;5.00;99.90;;;;;;5111496;28;20038;-83
2022/04/19 04:22:43;;;;;;;5.18;2.55;;;5.00;99.90;;;;;;5097128;28;20034;-74
2022/04/19 04:25:09;;;;;;;12.15;3.65;;;5.10;99.90;;;;;;5110292;28;20027;-76
2022/04/19 04:27:35;;;;;;;5.97;3.30;;;5.10;99.90;;;;;;5110268;28;20497;-75
2022/04/19 04:30:01;;;;;;;5.63;2.95;;;5.10;99.90;;;;;;5110367;27;20052;-75
2022/04/19 04:32:26;;;;;;;6.55;3.10;;;5.10;99.90;;;;;;5111607;28;20834;-76
2022/04/19 04:34:52;;;;;;;5.90;3.55;;;5.10;99.90;;;;;;5111580;28;20040;-76
2022/04/19 04:37:18;;;;;;;6.15;3.20;;;5.20;99.90;;;;;;5110313;28;20126;-75
2022/04/19 04:39:43;;;;;;;4.82;2.45;;;5.30;99.90;;;;;;5111619;28;20119;-75
2022/04/19 04:42:09;;;;;;;3.63;1.85;;;5.30;99.90;;;;;;5109997;28;20129;-76
2022/04/19 04:44:34;;;;;;;3.45;2.10;;;5.40;99.90;;;;;;5110047;28;20085;-76
2022/04/19 04:49:44;;;;;;;4.32;2.15;;;5.40;99.90;;;;;;5111300;28;20417;-76
2022/04/19 04:52:13;;;;;;;4.93;1.88;;;5.40;99.90;;;;;;5095396;28;20039;-80
2022/04/19 04:54:41;;;;;;;5.97;2.35;;;5.40;99.90;;;;;;5089425;28;20576;-80
2022/04/19 04:57:07;;;;;;;5.68;3.05;;;5.40;99.90;;;;;;5087564;28;20427;-80
2022/04/19 04:59:34;;;;;;;7.07;2.92;;;5.50;99.90;;;;;;5089263;28;20494;-80
2022/04/19 05:02:00;;;;;;;9.65;4.85;;;5.50;99.90;;;;;;5091876;28;20455;-83
2022/04/19 05:04:26;;;;;;;13.57;7.82;;;5.50;99.90;;;;;;5090764;28;20052;-82
2022/04/19 05:06:52;;;;;;;9.23;4.47;;;5.50;99.90;;;;;;5091637;28;20407;-84
2022/04/19 05:09:18;;;;;;;;;;;5.60;99.90;;;;;;5111971;28;20030;-82
2022/04/19 05:11:50;;;;;;;12.50;4.20;;;5.60;99.90;;;;;;5109014;28;20022;-80
2022/04/19 05:14:16;;;;;;;7.55;3.85;;;5.60;99.90;;;;;;5110380;28;20047;-81
2022/04/19 05:16:42;;;;;;;;;;;5.70;99.90;;;;;;5109033;28;20027;-81
2022/04/19 05:19:09;;;;;;;9.65;4.68;;;5.70;99.90;;;;;;5109012;28;19904;-82
2022/04/19 05:21:37;;;;;;;11.07;4.90;;;5.80;99.90;;;;;;5110137;28;20032;-84
2022/04/19 05:24:07;;;;;;;10.27;4.82;;;5.90;99.90;;;;;;5112083;28;20026;-83
2022/04/19 05:26:33;;;;;;;13.32;3.80;;;6.00;99.90;;;;;;5111248;28;20106;-78
2022/04/19 05:28:58;;;;;;;6.38;3.03;;;6.10;99.90;;;;;;5107238;28;20633;-79
2022/04/19 05:31:25;;;;;;;6.70;2.97;;;6.10;99.90;;;;;;5110211;28;20039;-83
2022/04/19 05:33:50;;;;;;;6.75;3.58;;;6.20;99.90;;;;;;5110334;27;20031;-81
2022/04/19 05:36:16;;;;;;;4.35;3.08;;;6.30;99.90;;;;;;5106826;28;20105;-81
2022/04/19 05:38:42;;;;;;;;;;;6.30;99.90;;;;;;5107634;28;20057;-79
2022/04/19 05:41:08;;;;;;;10.60;3.28;;;6.40;99.90;;;;;;5107827;28;19903;-80
2022/04/19 05:43:33;;;;;;;8.93;3.63;;;6.50;99.90;;;;;;5108375;28;20028;-82
2022/04/19 05:45:59;;;;;;;5.47;2.55;;;6.50;99.90;;;;;;5107740;28;20035;-81
2022/04/19 05:48:25;;;;;;;7.20;3.20;;;6.60;99.90;;;;;;5111078;28;20036;-83
2022/04/19 05:53:35;;;;;;;6.70;3.15;;;6.60;99.90;;;;;;5113371;28;19945;-83
2022/04/19 05:56:01;;;;;;;5.15;2.30;;;6.70;99.90;;;;;;5112552;28;20419;-87
2022/04/19 05:58:27;;;;;;;5.50;2.47;;;6.70;99.90;;;;;;5111266;28;20035;-82
2022/04/19 06:00:53;;;;;;;4.03;2.90;;;6.80;99.90;;;;;;5110220;28;20530;-82
2022/04/19 06:06:05;;;;;;;3.33;1.77;;;7.00;98.10;;;;;;5110491;28;20065;-83
2022/04/19 06:08:31;;;;;;;3.63;1.92;;;7.30;98.10;;;;;;5110780;28;20030;-83
2022/04/19 06:10:57;;;;;;;7.85;2.33;;;7.50;97.10;;;;;;5111139;28;20028;-82
2022/04/19 06:13:22;;;;;;;;;;;7.60;96.20;;;;;;5111429;28;20043;-83
2022/04/19 06:15:48;;;;;;;4.80;2.53;;;7.80;95.10;;;;;;5110797;28;19912;-82
2022/04/19 06:18:13;;;;;;;;;;;8.00;94.60;;;;;;5111110;28;20024;-83
2022/04/19 06:20:40;;;;;;;5.53;2.58;;;8.10;93.00;;;;;;5110262;28;19907;-83
2022/04/19 06:23:06;;;;;;;4.85;3.08;;;8.40;92.30;;;;;;5110043;28;20031;-82
2022/04/19 06:25:32;;;;;;;6.07;3.20;;;8.60;90.70;;;;;;5109993;28;20019;-81
2022/04/19 06:27:57;;;;;;;6.18;3.72;;;8.60;85.30;;;;;;5109923;28;20058;-83
2022/04/19 06:30:24;;;;;;;7.13;3.85;;;8.60;85.90;;;;;;5110379;28;20496;-83
2022/04/19 06:32:51;;;;;;;5.22;2.95;;;8.80;83.80;;;;;;5110303;28;20035;-83
2022/04/19 06:35:16;;;;;;;4.45;2.60;;;8.80;80.50;;;;;;5111626;28;20023;-82
2022/04/19 06:37:42;;;;;;;8.55;2.10;;;8.90;79.90;;;;;;5111355;28;20524;-83
2022/04/19 06:40:09;;;;;;;4.43;2.15;;;8.80;81.20;;;;;;5111365;28;20035;-83
2022/04/19 06:42:35;;;;;;;4.40;2.22;;;8.80;79.50;;;;;;5110088;28;20109;-83
2022/04/19 06:45:01;;;;;;;5.97;2.38;;;8.80;78.90;;;;;;5109722;28;20022;-82
2022/04/19 06:47:27;;;;;;;;;;;9.20;77.70;;;;;;5110619;28;20114;-83
2022/04/19 06:49:57;;;;;;;4.80;2.63;;;9.60;74.20;;;;;;5110576;28;19994;-84
2022/04/19 06:52:23;;;;;;;9.13;3.20;;;9.70;74.90;;;;;;5109200;28;20031;-83
2022/04/19 06:54:49;;;;;;;7.30;2.50;;;10.00;75.30;;;;;;5107464;28;20023;-80
2022/04/19 06:57:15;;;;;;;;;;;10.20;73.80;;;;;;5109278;28;20034;-79
2022/04/19 06:59:40;;;;;;;7.57;3.08;;;10.50;74.60;;;;;;5108782;28;20295;-79
2022/04/19 07:02:06;;;;;;;;;;;10.40;74.50;;;;;;5108173;28;20057;-79
2022/04/19 07:04:32;;;;;;;8.80;5.13;;;10.00;75.40;;;;;;5108656;28;19911;-80
2022/04/19 07:06:58;;;;;;;;;;;10.10;77.90;;;;;;5109178;28;20028;-81
2022/04/19 07:09:23;;;;;;;7.22;3.67;;;10.70;75.80;;;;;;5108810;28;19907;-80
2022/04/19 07:11:49;;;;;;;;;;;11.90;69.00;;;;;;5108092;28;20116;-80
2022/04/19 07:14:14;;;;;;;8.73;2.50;;;12.50;63.70;;;;;;5109041;28;19937;-80
2022/04/19 07:16:40;;;;;;;;;;;12.70;62.90;;;;;;5109280;28;20042;-80
2022/04/19 07:19:06;;;;;;;8.73;3.05;;;12.70;61.20;;;;;;5108891;28;19904;-81
2022/04/19 07:27:00;;;;;;;7.03;3.38;;;12.50;60.60;;;;;;5109128;28;20406;-79
2022/04/19 07:29:26;;;;;;;6.80;2.75;;;12.40;61.70;;;;;;5107359;28;20116;-80
2022/04/19 07:31:51;;;;;;;;;;;12.80;60.20;;;;;;5107953;28;20560;-81
2022/04/19 07:34:17;;;;;;;6.68;3.13;;;12.70;59.50;;;;;;5107486;28;19907;-80
2022/04/19 07:36:43;;;;;;;;;;;12.80;59.90;;;;;;5109147;28;20484;-81
2022/04/19 07:39:10;;;;;;;9.55;3.08;;;13.00;58.80;;;;;;5108506;28;19907;-81
2022/04/19 07:41:39;;;;;;;5.00;2.83;;;13.30;57.80;;;;;;5108780;28;20519;-80
2022/04/19 07:44:06;;;;;;;5.43;2.33;;;13.50;56.80;;;;;;5108930;28;20863;-81
2022/04/19 07:46:33;;;;;;;6.03;2.47;;;13.60;56.20;;;;;;5108425;28;20109;-80
2022/04/19 07:48:59;;;;;;;6.30;3.10;;;13.30;55.80;;;;;;5107178;28;20054;-80
2022/04/19 07:51:25;;;;;;;4.72;2.88;;;13.00;56.90;;;;;;5107196;28;20609;-78
2022/04/19 07:53:52;;;;;;;5.35;2.50;;;12.60;58.20;;;;;;5108399;28;20403;-80
2022/04/19 07:56:18;;;;;;;7.78;2.33;;;12.40;59.10;;;;;;5107203;28;20031;-79
2022/04/19 07:58:46;;;;;;;9.48;2.72;;;12.10;58.70;;;;;;5108505;28;20098;-80
2022/04/19 08:01:13;;;;;;;5.90;2.38;;;12.10;60.40;;;;;;5108725;28;20032;-79
2022/04/19 08:03:38;;;;;;;6.65;3.10;;;12.30;60.10;;;;;;5107309;28;20802;-80
2022/04/19 08:06:04;;;;;;;;;;;11.90;61.30;;;;;;5112342;28;20039;-80
2022/04/19 08:08:30;;;;;;;6.05;3.00;;;11.20;63.80;;;;;;5110690;28;19911;-79
2022/04/19 08:10:55;;;;;;;;;;;11.10;64.90;;;;;;5112633;28;20081;-80
2022/04/19 08:13:21;;;;;;;6.22;2.75;;;11.00;65.50;;;;;;5112310;28;19908;-80
2022/04/19 08:15:47;;;;;;;5.05;2.63;;;10.60;67.00;;;;;;5110607;28;20028;-80
2022/04/19 08:18:16;;;;;;;5.90;2.85;;;10.50;68.90;;;;;;5111126;28;20035;-79
2022/04/19 08:20:43;;;;;;;7.60;3.00;;;10.70;67.80;;;;;;5112156;28;20023;-80
2022/04/19 08:23:10;;;;;;;6.90;2.97;;;10.60;68.20;;;;;;5111856;28;20030;-80
2022/04/19 08:25:36;;;;;;;5.40;2.67;;;10.90;67.60;;;;;;5110757;28;20031;-80
2022/04/19 08:28:03;;;;;;;7.40;2.90;;;10.60;68.70;;;;;;5111685;28;20047;-81
2022/04/19 08:30:29;;;;;;;6.35;2.47;;;10.30;69.60;;;;;;5110454;28;20070;-80
2022/04/19 08:32:55;;;;;;;;;;;9.90;70.40;;;;;;5110899;28;20126;-79
2022/04/19 08:35:20;;;;;;;5.15;2.92;;;9.80;69.90;;;;;;5110450;28;19919;-80
2022/04/19 08:37:46;;;;;;;;;;;9.60;72.20;;;;;;5111804;28;20035;-79
2022/04/19 08:40:13;;;;;;;5.78;2.08;;;9.50;73.40;;;;;;5110253;28;19911;-80
2022/04/19 08:42:40;;;;;;;7.70;3.00;;;9.90;71.80;;;;;;5111731;28;20023;-80
2022/04/19 08:45:07;;;;;;;5.13;2.55;;;10.10;71.30;;;;;;5111456;28;20039;-79
2022/04/19 08:47:38;;;;;;;7.03;2.70;;;10.10;72.60;;;;;;5110936;28;20515;-80
2022/04/19 08:50:07;;;;;;;8.45;2.78;;;10.20;75.40;;;;;;5111322;27;20040;-80
2022/04/19 08:52:33;;;;;;;4.35;2.20;;;10.20;73.50;;;;;;5109810;28;20147;-80
2022/04/19 08:57:44;;;;;;;8.65;2.70;;;10.40;68.80;;;;;;5111854;28;20038;-80
2022/04/19 09:00:10;;;;;;;;;;;10.60;70.10;;;;;;5110268;28;20023;-80
2022/04/19 09:02:39;;;;;;;4.93;2.28;;;10.60;69.50;;;;;;5111333;28;20424;-80
2022/04/19 09:05:12;;;;;;;4.97;2.65;;;10.60;69.20;;;;;;5109803;28;20069;-80
2022/04/19 09:07:37;;;;;;;4.60;2.55;;;10.70;69.80;;;;;;5111165;28;20035;-80
2022/04/19 09:10:04;;;;;;;;;;;10.50;67.10;;;;;;5111944;28;20027;-80
2022/04/19 09:12:29;;;;;;;6.97;2.80;;;10.50;67.20;;;;;;5109761;28;20305;-80
2022/04/19 09:14:56;;;;;;;;;;;10.40;67.60;;;;;;5110013;28;20073;-80
2022/04/19 09:17:34;;;;;;;5.93;2.50;;;10.40;67.30;;;;;;5110413;28;20389;-80
2022/04/19 09:20:15;;;;;;;3.80;2.15;;;10.50;68.90;;;;;;5110863;27;20085;-80
2022/04/19 09:22:42;;;;;;;7.45;3.08;;;10.90;66.80;;;;;;5109777;28;20139;-81
2022/04/19 09:25:19;;;;;;;4.20;2.50;;;11.00;66.40;;;;;;5111139;28;20153;-80
2022/04/19 09:27:47;;;;;;;10.13;2.53;;;11.30;64.00;;;;;;5109929;28;20034;-80
2022/04/19 09:30:24;;;;;;;6.60;2.67;;;11.40;62.60;;;;;;5110516;28;20484;-80
2022/04/19 09:33:03;;;;;;;3.35;2.10;;;11.30;63.30;;;;;;5110071;28;20189;-78
2022/04/19 09:35:33;;;;;;;6.97;2.10;;;11.20;64.10;;;;;;5100164;28;20537;-80
2022/04/19 09:37:59;;;;;;;9.10;2.75;;;10.90;63.40;;;;;;5089966;28;20047;-80
2022/04/19 09:40:48;;;;;;;;;;;10.60;63.70;;;;;;5090632;28;20043;-80
2022/04/19 09:43:21;;;;;;;6.80;2.78;;;10.60;63.00;;;;;;5081817;28;19904;-80
2022/04/19 09:46:03;;;;;;;3.75;2.10;;;10.50;64.80;;;;;;5090124;28;20060;-78
2022/04/19 09:48:34;;;;;;;8.68;2.72;;;10.70;63.50;;;;;;5090168;28;20032;-81
2022/04/19 09:51:04;;;;;;;7.88;2.13;;;10.70;64.80;;;;;;5089696;28;20152;-80
2022/04/19 09:53:45;;;;;;;4.40;2.53;;;10.60;66.00;;;;;;5102517;28;20065;-81
2022/04/19 09:56:19;;;;;;;4.30;2.60;;;10.90;66.40;;;;;;5109086;28;20753;-80
2022/04/19 09:58:47;;;;;;;4.57;2.42;;;11.40;64.10;;;;;;5108634;28;20106;-80
2022/04/19 10:09:33;;;;;;;5.05;2.67;;;10.90;63.60;;;;;;5108613;28;20067;-78
2022/04/19 10:12:01;;;;;;;3.80;2.67;;;10.90;66.30;;;;;;5104133;28;20511;-80
2022/04/19 10:14:29;;;;;;;3.97;2.67;;;11.00;67.40;;;;;;5105439;28;20032;-78
2022/04/19 10:16:57;;;;;;;6.00;3.05;;;11.00;67.50;;;;;;5106322;28;20035;-80
2022/04/19 10:19:23;;;;;;;6.60;2.88;;;11.10;69.30;;;;;;5107562;28;20027;-80
2022/04/19 10:21:49;;;;;;;;;;;10.80;70.10;;;;;;5107200;28;20040;-79
2022/04/19 10:24:16;;;;;;;4.57;2.40;;;10.90;70.10;;;;;;5107693;28;19969;-79
2022/04/19 10:26:47;;;;;;;4.57;2.50;;;11.20;68.60;;;;;;5106157;28;20054;-79
2022/04/19 10:29:34;;;;;;;11.75;6.75;;;11.20;68.60;;;;;;5105116;28;20036;-79
2022/04/19 10:32:06;;;;;;;7.97;2.75;;;11.40;67.40;;;;;;5104902;28;20490;-77
2022/04/19 10:34:34;;;;;;;5.10;2.60;;;11.50;66.80;;;;;;5107880;28;20524;-78
2022/04/19 10:37:15;;;;;;;6.43;2.33;;;11.40;68.10;;;;;;5103897;28;20466;-79
2022/04/19 10:39:47;;;;;;;5.40;2.75;;;11.30;68.20;;;;;;5107105;28;20028;-78
2022/04/19 10:42:43;;;;;;;4.82;2.75;;;11.20;69.00;;;;;;5102623;28;20051;-78
2022/04/19 10:45:11;;;;;;;8.70;2.28;;;11.10;70.30;;;;;;5105835;28;20081;-79
2022/04/19 10:47:57;;;;;;;4.35;2.65;;;11.10;70.50;;;;;;5108253;28;20042;-79
2022/04/19 10:50:34;;;;;;;5.35;2.72;;;11.10;69.10;;;;;;5101986;28;20056;-78
2022/04/19 10:53:04;;;;;;;5.88;2.40;;;11.00;70.30;;;;;;5105361;28;20488;-78
2022/04/19 10:55:34;;;;;;;3.33;2.28;;;11.10;70.00;;;;;;5105606;28;20046;-79
2022/04/19 10:58:23;;;;;;;3.97;2.40;;;10.80;70.90;;;;;;5105859;28;20042;-79
2022/04/19 11:00:56;;;;;;;4.10;2.42;;;10.80;69.90;;;;;;5107485;28;20442;-79
2022/04/19 11:03:37;;;;;;;4.35;2.63;;;10.70;69.40;;;;;;5107985;28;20055;-79
2022/04/19 11:06:04;;;;;;;4.72;2.28;;;10.60;70.00;;;;;;5095384;28;20043;-78
2022/04/19 11:08:37;;;;;;;3.83;2.33;;;10.40;70.70;;;;;;5106571;28;20036;-79
2022/04/19 11:11:04;;;;;;;4.45;2.58;;;10.30;73.80;;;;;;5105308;28;20096;-80
2022/04/19 11:13:38;;;;;;;3.60;2.25;;;10.20;79.20;;;;;;5107647;28;20036;-78
2022/04/19 11:16:13;;;;;;;9.25;2.70;;;10.10;82.70;;;;;;5108204;28;20830;-79
2022/04/19 11:18:41;;;;;;;3.53;2.60;;;10.20;85.70;;;;;;5103930;28;20040;-80
2022/04/19 11:21:08;;;;;;;3.80;2.78;;;10.40;84.10;;;;;;5103696;28;20035;-79
2022/04/19 11:23:44;;;;;;;5.07;2.65;;;10.50;82.50;;;;;;5106784;28;20135;-79
2022/04/19 11:26:33;;;;;;;4.72;2.67;;;10.70;86.80;;;;;;5108342;28;20039;-79
2022/04/19 11:29:11;;;;;;;4.07;2.85;;;10.80;80.80;;;;;;5103690;28;20159;-79
2022/04/19 11:31:56;;;;;;;4.95;2.78;;;10.50;81.70;;;;;;5088825;28;20040;-79
2022/04/19 11:34:23;;;;;;;7.45;2.92;;;10.40;87.10;;;;;;5091916;28;20035;-79
2022/04/19 11:36:49;;;;;;;5.20;3.22;;;10.30;89.50;;;;;;5098214;28;20118;-79
2022/04/19 11:47:50;;;;;;;4.95;3.45;;;9.90;91.40;;;;;;5132037;27;20057;-80
2022/04/19 11:50:47;;;;;;;7.13;3.53;;;10.00;95.80;;;;;;5116490;27;20085;-79
2022/04/19 11:53:17;;;;;;;5.47;2.90;;;10.10;98.80;;;;;;5110994;27;20047;-80
2022/04/19 11:55:51;;;;;;;5.63;3.00;;;10.10;94.20;;;;;;5118576;27;20061;-79
2022/04/19 11:58:21;;;;;;;5.20;2.90;;;10.00;94.00;;;;;;5132133;27;20031;-79
2022/04/19 12:00:58;;;;;;;4.00;2.67;;;10.00;94.20;;;;;;5121519;27;20057;-80
2022/04/19 12:03:26;;;;;;;4.82;2.60;;;10.10;93.30;;;;;;5115841;27;20039;-80
2022/04/19 12:06:03;;;;;;;4.00;2.47;;;10.10;94.20;;;;;;5122668;27;20031;-79
2022/04/19 12:08:33;;;;;;;;;;;9.90;94.60;;;;;;5114959;27;20088;-78
2022/04/19 12:11:02;;;;;;;5.22;2.92;;;9.50;97.90;;;;;;5128366;27;20368;-80
2022/04/19 12:13:28;;;;;;;5.00;2.70;;;9.60;99.90;;;;;;5116629;27;20027;-80
2022/04/19 12:15:54;;;;;;;;;;;9.50;98.00;;;;;;5119662;27;20039;-79
2022/04/19 12:18:36;;;;;;;4.43;2.65;;;9.50;96.90;;;;;;5114322;27;19918;-79
2022/04/19 12:21:04;;;;;;;5.72;2.65;;;9.90;92.80;;;;;;5130247;27;20030;-79
2022/04/19 12:23:30;;;;;;;2.60;1.90;;;10.10;90.90;;;;;;5129690;27;20042;-79
2022/04/19 12:26:06;;;;;;;;;;;10.20;91.40;;;;;;5128597;27;20080;-78
2022/04/19 12:28:39;;;;;;;5.25;3.30;;;10.60;81.00;;;;;;5113897;27;20299;-81
2022/04/19 12:31:05;;;;;;;18.95;4.22;;;10.90;83.60;;;;;;5132146;27;20023;-80
2022/04/19 12:33:31;;;;;;;;;;;11.30;74.60;;;;;;5133095;27;20510;-79
2022/04/19 12:35:58;;;;;;;4.97;2.40;;;11.30;77.50;;;;;;5114150;27;19975;-80
2022/04/19 12:38:31;;;;;;;5.78;2.45;;;11.20;78.00;;;;;;5113673;27;20611;-79
2022/04/19 12:40:58;;;;;;;3.97;2.30;;;11.50;78.40;;;;;;5112351;27;20071;-80
2022/04/19 12:43:44;;;;;;;4.70;2.58;;;11.50;79.40;;;;;;5117414;27;20068;-80
2022/04/19 12:46:11;;;;;;;4.22;2.42;;;11.70;74.10;;;;;;5128869;27;20031;-80
2022/04/19 12:48:38;;;;;;;5.82;2.47;;;11.60;71.90;;;;;;5128115;27;20050;-79
2022/04/19 12:51:04;;;;;;;5.93;3.67;;;11.60;73.60;;;;;;5113124;27;20142;-79
2022/04/19 12:53:30;;;;;;;;;;;11.60;75.40;;;;;;5129462;27;20067;-79
2022/04/19 12:55:55;;;;;;;7.93;3.55;;;11.80;71.50;;;;;;5113218;27;20347;-78
2022/04/19 12:58:22;;;;;;;;;;;11.70;70.30;;;;;;5116358;27;20127;-79
2022/04/19 13:00:48;;;;;;;4.35;2.15;;;11.40;72.10;;;;;;5114560;27;19944;-80
2022/04/19 13:03:16;;;;;;;4.50;1.90;;;11.40;70.70;;;;;;5130356;27;20514;-79
2022/04/19 13:13:58;;;;;;;4.40;2.55;;;11.30;64.20;;;;;;5131913;27;20568;-79
2022/04/19 13:16:24;;;;;;;;;;;11.30;66.40;;;;;;5113370;27;20057;-80
2022/04/19 13:18:50;;;;;;;5.85;2.80;;;11.20;65.20;;;;;;5131373;27;20402;-79
2022/04/19 13:21:16;;;;;;;4.82;2.50;;;11.00;65.40;;;;;;5113509;27;20038;-78
2022/04/19 13:23:41;;;;;;;4.75;2.35;;;11.10;65.40;;;;;;5131520;27;20027;-79
2022/04/19 13:26:07;;;;;;;;;;;11.10;66.90;;;;;;5132168;27;20038;-80
2022/04/19 13:28:33;;;;;;;5.20;2.47;;;11.00;65.20;;;;;;5131562;27;19908;-79
2022/04/19 13:30:59;;;;;;;6.32;3.15;;;10.90;65.60;;;;;;5131309;27;20085;-80
2022/04/19 13:33:25;;;;;;;;;;;10.80;64.80;;;;;;5113313;27;20464;-79
2022/04/19 13:35:50;;;;;;;6.75;2.30;;;10.80;65.10;;;;;;5113055;27;19908;-82
2022/04/19 13:38:25;;;;;;;6.97;2.45;;;10.70;65.60;;;;;;5112958;27;20030;-79
2022/04/19 13:40:52;;;;;;;4.45;2.13;;;10.70;65.30;;;;;;5131100;27;20028;-80
2022/04/19 13:43:18;;;;;;;5.55;2.83;;;10.80;65.00;;;;;;5113006;27;20514;-80
2022/04/19 13:45:43;;;;;;;;;;;10.80;64.10;;;;;;5113096;27;20027;-80
2022/04/19 13:48:09;;;;;;;49.55;6.25;;;11.00;63.70;;;;;;5112540;27;19950;-80
2022/04/19 13:50:36;;;;;;;5.22;2.47;;;11.00;63.50;;;;;;5130900;27;20477;-78
2022/04/19 13:53:02;;;;;;;10.45;2.50;;;10.80;63.50;;;;;;5112349;27;20035;-77
2022/04/19 13:55:28;;;;;;;;;;;10.90;62.50;;;;;;5112962;27;20444;-77
2022/04/19 13:57:55;;;;;;;7.45;5.00;;;10.90;62.60;;;;;;5130960;27;19903;-76